Time;durP1;ratioP1;P1;durP2;ratioP2;P2;SDS_P1;SDS_P2;PMS_P1;PMS_P2;Temp;Humidity;BMP_temperature;BMP_pressure;BME280_temperature;BME280_humidity;BME280_pressure;Samples;Min_cycle;Max_cycle;Signal;HPM_P1;HPM_P2
2021/10/02 00:01:41;;;;;;;18.33;10.30;;;;;;;;;;7393625;19;20040;-46
2021/10/02 00:02:19;;;;;;;11.65;8.20;;;;;;;;;;7393658;19;20010;-49
2021/10/02 00:35:22;;;;;;;44.38;22.13;;;;;;;;;;7392840;19;20022;-52
2021/10/02 00:45:43;;;;;;;16.70;11.23;;;;;;;;;;7393757;19;20032;-48
2021/10/02 00:48:12;;;;;;;17.88;10.18;;;;;;;;;;7391941;19;20025;-47
2021/10/02 00:50:40;;;;;;;15.93;9.10;;;;;;;;;;7391652;19;20010;-40
2021/10/02 00:53:08;;;;;;;16.08;8.85;;;;;;;;;;7390980;19;20346;-46
2021/10/02 00:55:35;;;;;;;19.38;10.63;;;;;;;;;;7392304;19;20482;-42
2021/10/02 00:58:03;;;;;;;14.23;9.30;;;;;;;;;;7392094;19;20015;-46
2021/10/02 01:00:31;;;;;;;12.60;9.13;;;;;;;;;;7390626;19;20015;-43
2021/10/02 01:03:39;;;;;;;17.17;9.20;;;;;;;;;;7391881;19;20348;-46
2021/10/02 01:06:07;;;;;;;13.85;8.80;;;;;;;;;;7392890;19;20018;-41
2021/10/02 01:08:42;;;;;;;14.88;8.38;;;;;;;;;;7392315;19;20006;-50
2021/10/02 01:11:41;;;;;;;12.73;8.25;;;;;;;;;;7391340;19;20015;-42
2021/10/02 01:14:27;;;;;;;13.43;7.38;;;;;;;;;;7393141;19;20026;-44
2021/10/02 01:17:00;;;;;;;14.13;9.30;;;;;;;;;;7391607;19;20010;-43
2021/10/02 01:19:34;;;;;;;35.40;17.38;;;;;;;;;;7390236;19;20094;-44
2021/10/02 01:22:18;;;;;;;19.33;9.93;;;;;;;;;;7390338;19;20014;-41
2021/10/02 01:25:05;;;;;;;14.05;8.40;;;;;;;;;;7391219;19;20018;-41
2021/10/02 01:27:44;;;;;;;11.85;7.55;;;;;;;;;;7389969;19;20010;-45
2021/10/02 01:30:23;;;;;;;14.60;9.02;;;;;;;;;;7390328;19;20345;-45
2021/10/02 01:33:04;;;;;;;14.52;8.13;;;;;;;;;;7390334;19;20018;-44
2021/10/02 01:49:18;;;;;;;11.10;7.85;;;;;;;;;;7389216;19;20030;-44
2021/10/02 01:51:47;;;;;;;11.68;8.13;;;;;;;;;;7389539;19;20479;-49
2021/10/02 01:54:15;;;;;;;12.80;7.90;;;;;;;;;;7387744;19;20029;-47
2021/10/02 01:56:46;;;;;;;15.50;8.68;;;;;;;;;;7389447;19;20014;-42
2021/10/02 01:59:14;;;;;;;15.02;8.38;;;;;;;;;;7389030;19;20010;-44
2021/10/02 02:01:44;;;;;;;12.38;8.10;;;;;;;;;;7387883;19;20011;-41
2021/10/02 02:04:14;;;;;;;12.38;8.25;;;;;;;;;;7390804;19;20011;-51
2021/10/02 02:06:43;;;;;;;13.48;7.72;;;;;;;;;;7394546;19;20372;-49
2021/10/02 02:09:15;;;;;;;14.00;8.38;;;;;;;;;;7390094;19;20035;-50
2021/10/02 02:11:44;;;;;;;10.20;6.75;;;;;;;;;;7389960;19;20018;-51
2021/10/02 02:14:14;;;;;;;12.55;7.82;;;;;;;;;;7390979;19;20085;-43
2021/10/02 02:16:44;;;;;;;15.88;7.55;;;;;;;;;;7390169;19;20011;-49
2021/10/02 02:19:12;;;;;;;13.30;8.30;;;;;;;;;;7389139;19;20482;-45
2021/10/02 02:21:43;;;;;;;14.20;9.13;;;;;;;;;;7390134;19;20042;-54
2021/10/02 02:24:11;;;;;;;12.15;7.97;;;;;;;;;;7389543;19;20026;-49
2021/10/02 02:26:40;;;;;;;16.73;9.55;;;;;;;;;;7389641;19;20010;-41
2021/10/02 02:29:08;;;;;;;13.70;7.78;;;;;;;;;;7389608;19;20031;-41
2021/10/02 02:31:36;;;;;;;12.02;7.97;;;;;;;;;;7388260;19;20017;-42
2021/10/02 02:34:04;;;;;;;14.43;8.27;;;;;;;;;;7388221;19;20014;-42
2021/10/02 02:36:31;;;;;;;11.15;7.85;;;;;;;;;;7389068;19;20019;-50
2021/10/02 02:38:59;;;;;;;13.85;8.32;;;;;;;;;;7387429;19;20023;-45
2021/10/02 02:41:26;;;;;;;17.65;8.10;;;;;;;;;;7391691;19;20031;-44
2021/10/02 02:43:54;;;;;;;13.32;8.43;;;;;;;;;;7394906;19;20020;-50
2021/10/02 02:46:31;;;;;;;15.10;8.10;;;;;;;;;;7396082;19;20018;-46
2021/10/02 02:49:18;;;;;;;11.82;7.50;;;;;;;;;;7395593;19;20058;-51
2021/10/02 02:52:19;;;;;;;13.27;7.60;;;;;;;;;;7396273;19;20039;-41
2021/10/02 02:55:06;;;;;;;13.90;8.07;;;;;;;;;;7391564;19;20034;-41
2021/10/02 02:57:40;;;;;;;12.38;8.20;;;;;;;;;;7395342;19;20025;-56
2021/10/02 03:00:17;;;;;;;10.80;6.95;;;;;;;;;;7396395;19;20024;-44
2021/10/02 03:03:01;;;;;;;14.32;7.18;;;;;;;;;;7396668;19;20018;-42
2021/10/02 03:05:31;;;;;;;11.77;7.07;;;;;;;;;;7396089;19;20018;-42
2021/10/02 03:08:05;;;;;;;11.57;7.88;;;;;;;;;;7396395;19;20031;-53
2021/10/02 03:10:34;;;;;;;11.75;7.57;;;;;;;;;;7396014;19;20018;-49
2021/10/02 03:13:06;;;;;;;14.32;7.72;;;;;;;;;;7396001;19;20388;-47
2021/10/02 03:15:35;;;;;;;13.98;8.05;;;;;;;;;;7395597;19;20043;-51
2021/10/02 03:18:04;;;;;;;15.50;7.57;;;;;;;;;;7395657;19;20015;-52
2021/10/02 03:20:32;;;;;;;14.65;7.35;;;;;;;;;;7395265;19;20089;-51
2021/10/02 03:23:00;;;;;;;12.23;7.22;;;;;;;;;;7399421;19;20042;-51
2021/10/02 03:25:30;;;;;;;10.00;6.68;;;;;;;;;;7394078;19;20019;-51
2021/10/02 03:28:00;;;;;;;9.70;6.63;;;;;;;;;;7395473;19;20028;-50
2021/10/02 03:30:29;;;;;;;11.85;6.93;;;;;;;;;;7394939;19;20021;-48
2021/10/02 03:32:58;;;;;;;13.52;7.00;;;;;;;;;;7394157;19;20038;-43
2021/10/02 03:35:26;;;;;;;11.75;6.88;;;;;;;;;;7394399;19;20018;-39
2021/10/02 03:37:54;;;;;;;13.63;7.20;;;;;;;;;;7393977;19;20329;-51
2021/10/02 03:40:22;;;;;;;14.02;8.95;;;;;;;;;;7394478;19;20042;-42
2021/10/02 03:42:53;;;;;;;12.18;7.40;;;;;;;;;;7393824;19;20013;-41
2021/10/02 03:45:24;;;;;;;225.35;99.50;;;;;;;;;;7397591;19;20046;-42
2021/10/02 03:47:52;;;;;;;38.03;20.25;;;;;;;;;;7397571;19;20029;-40
2021/10/02 03:50:20;;;;;;;13.77;8.60;;;;;;;;;;7393719;19;20497;-40
2021/10/02 03:52:48;;;;;;;13.40;7.47;;;;;;;;;;7391114;19;20037;-41
2021/10/02 03:55:16;;;;;;;13.57;7.47;;;;;;;;;;7391315;19;20025;-44
2021/10/02 03:57:45;;;;;;;12.77;7.50;;;;;;;;;;7394125;19;20011;-43
2021/10/02 04:00:14;;;;;;;13.57;8.73;;;;;;;;;;7393049;19;20042;-41
2021/10/02 04:02:42;;;;;;;32.78;15.63;;;;;;;;;;7394389;19;20028;-42
2021/10/02 04:05:10;;;;;;;22.60;11.68;;;;;;;;;;7391847;19;20486;-40
2021/10/02 04:07:38;;;;;;;13.60;8.02;;;;;;;;;;7393462;19;20024;-41
2021/10/02 04:10:09;;;;;;;11.90;6.75;;;;;;;;;;7394267;19;20047;-52
2021/10/02 04:12:37;;;;;;;13.95;7.22;;;;;;;;;;7392883;19;20038;-39
2021/10/02 04:15:05;;;;;;;11.00;6.90;;;;;;;;;;7390804;19;20006;-41
2021/10/02 04:17:33;;;;;;;76.78;33.97;;;;;;;;;;7393138;19;20018;-42
2021/10/02 04:20:00;;;;;;;27.00;15.95;;;;;;;;;;7392833;19;20011;-41
2021/10/02 04:22:28;;;;;;;19.35;7.88;;;;;;;;;;7392846;19;20030;-42
2021/10/02 04:24:55;;;;;;;11.00;7.10;;;;;;;;;;7392911;19;20021;-43
2021/10/02 04:27:23;;;;;;;12.10;7.15;;;;;;;;;;7393255;19;20019;-40
2021/10/02 04:29:50;;;;;;;13.05;6.40;;;;;;;;;;7392729;19;20003;-42
2021/10/02 04:32:17;;;;;;;11.07;6.57;;;;;;;;;;7392262;19;20014;-42
2021/10/02 04:34:45;;;;;;;10.95;7.03;;;;;;;;;;7390129;19;20017;-42
2021/10/02 04:37:13;;;;;;;10.38;6.40;;;;;;;;;;7392320;19;20487;-41
2021/10/02 04:39:40;;;;;;;13.18;7.20;;;;;;;;;;7389835;19;20017;-41
2021/10/02 04:42:08;;;;;;;10.35;5.82;;;;;;;;;;7392929;19;20022;-40
2021/10/02 04:44:36;;;;;;;56.85;24.88;;;;;;;;;;7392515;19;20483;-44
2021/10/02 04:47:03;;;;;;;20.08;10.15;;;;;;;;;;7392639;19;20018;-41
2021/10/02 04:49:31;;;;;;;13.45;7.10;;;;;;;;;;7391620;19;20014;-40
2021/10/02 04:51:58;;;;;;;10.88;6.70;;;;;;;;;;7393738;19;20014;-41
2021/10/02 04:54:26;;;;;;;10.52;6.72;;;;;;;;;;7389578;19;20027;-41
2021/10/02 04:59:56;;;;;;;11.07;6.53;;;;;;;;;;7387244;19;19986;-49
2021/10/02 05:02:25;;;;;;;14.13;6.95;;;;;;;;;;7392296;19;20078;-43
2021/10/02 05:04:52;;;;;;;10.80;6.65;;;;;;;;;;7391267;19;20046;-44
2021/10/02 05:07:19;;;;;;;12.05;6.80;;;;;;;;;;7392598;19;20010;-42
2021/10/02 05:09:47;;;;;;;12.13;5.97;;;;;;;;;;7391650;19;20013;-41
2021/10/02 05:12:15;;;;;;;11.95;5.80;;;;;;;;;;7391723;19;20010;-41
2021/10/02 05:14:42;;;;;;;181.02;99.13;;;;;;;;;;7394500;19;20010;-41
2021/10/02 05:17:14;;;;;;;33.92;17.88;;;;;;;;;;7391305;19;20007;-41
2021/10/02 05:19:41;;;;;;;12.70;6.72;;;;;;;;;;7391319;19;20078;-41
2021/10/02 05:22:13;;;;;;;12.90;6.47;;;;;;;;;;7391111;19;20014;-44
2021/10/02 05:24:41;;;;;;;8.65;4.90;;;;;;;;;;7391706;19;20015;-38
2021/10/02 05:27:09;;;;;;;10.77;6.57;;;;;;;;;;7394970;19;20018;-40
2021/10/02 05:29:39;;;;;;;12.52;6.68;;;;;;;;;;7390910;19;20006;-40
2021/10/02 05:32:09;;;;;;;14.40;8.65;;;;;;;;;;7390857;19;20098;-40
2021/10/02 05:34:36;;;;;;;21.35;12.90;;;;;;;;;;7386908;19;20039;-40
2021/10/02 05:37:04;;;;;;;16.27;11.23;;;;;;;;;;7388800;19;20015;-40
2021/10/02 05:39:31;;;;;;;17.75;13.68;;;;;;;;;;7390527;19;20023;-41
2021/10/02 05:41:59;;;;;;;15.30;10.55;;;;;;;;;;7390639;19;20024;-48
2021/10/02 05:44:27;;;;;;;50.72;24.85;;;;;;;;;;7389727;19;20006;-47
2021/10/02 05:46:56;;;;;;;15.85;8.75;;;;;;;;;;7390736;19;20016;-41
2021/10/02 05:49:23;;;;;;;7.85;5.20;;;;;;;;;;7390830;19;20018;-38
2021/10/02 05:51:51;;;;;;;7.60;4.97;;;;;;;;;;7390147;19;20030;-41
2021/10/02 05:54:18;;;;;;;10.02;5.43;;;;;;;;;;7389165;19;20033;-40
2021/10/02 05:56:45;;;;;;;6.80;4.78;;;;;;;;;;7389733;19;20035;-41
2021/10/02 05:59:12;;;;;;;12.45;4.68;;;;;;;;;;7389722;19;20014;-40
2021/10/02 06:01:40;;;;;;;9.80;5.65;;;;;;;;;;7388765;19;20035;-40
2021/10/02 06:04:07;;;;;;;7.88;5.20;;;;;;;;;;7389665;19;20062;-42
2021/10/02 06:06:35;;;;;;;8.43;5.38;;;;;;;;;;7390032;19;20029;-44
2021/10/02 06:09:02;;;;;;;259.20;124.75;;;;;;;;;;7389983;19;20019;-44
2021/10/02 06:11:30;;;;;;;36.58;20.50;;;;;;;;;;7389213;19;20022;-41
2021/10/02 06:13:58;;;;;;;10.27;6.35;;;;;;;;;;7392187;19;20011;-42
2021/10/02 06:16:31;;;;;;;11.93;7.35;;;;;;;;;;7391186;19;20074;-41
2021/10/02 06:18:58;;;;;;;11.25;5.57;;;;;;;;;;7396623;19;20581;-49
2021/10/02 06:21:26;;;;;;;7.22;5.28;;;;;;;;;;7396543;19;20011;-41
2021/10/02 06:23:58;;;;;;;9.27;5.47;;;;;;;;;;7397244;19;20021;-51
2021/10/02 06:26:28;;;;;;;9.55;5.53;;;;;;;;;;7397311;19;20384;-39
2021/10/02 06:28:55;;;;;;;8.10;5.05;;;;;;;;;;7396925;19;20018;-41
2021/10/02 06:31:23;;;;;;;9.80;5.28;;;;;;;;;;7395274;19;20018;-41
2021/10/02 06:33:50;;;;;;;9.77;4.85;;;;;;;;;;7395984;19;20021;-43
2021/10/02 06:36:18;;;;;;;7.53;4.78;;;;;;;;;;7395607;19;20006;-42
2021/10/02 06:38:45;;;;;;;9.75;4.82;;;;;;;;;;7394197;19;20015;-41
2021/10/02 06:41:13;;;;;;;8.93;5.60;;;;;;;;;;7395490;19;20010;-41
2021/10/02 06:43:41;;;;;;;173.77;74.22;;;;;;;;;;7400553;19;20025;-43
2021/10/02 06:46:08;;;;;;;63.58;28.40;;;;;;;;;;7395416;19;20031;-43
2021/10/02 06:48:36;;;;;;;25.80;13.20;;;;;;;;;;7396342;19;20105;-41
2021/10/02 06:51:06;;;;;;;11.85;7.22;;;;;;;;;;7395487;19;20018;-42
2021/10/02 06:53:34;;;;;;;20.08;11.40;;;;;;;;;;7395235;19;20026;-42
2021/10/02 06:56:02;;;;;;;17.60;12.52;;;;;;;;;;7392055;19;20693;-39
2021/10/02 06:58:29;;;;;;;23.17;14.35;;;;;;;;;;7394349;19;20015;-42
2021/10/02 07:00:57;;;;;;;10.82;6.72;;;;;;;;;;7394833;19;20017;-41
2021/10/02 07:03:25;;;;;;;10.15;4.75;;;;;;;;;;7395970;19;20018;-40
2021/10/02 07:05:52;;;;;;;7.60;4.25;;;;;;;;;;7395358;19;20010;-41
2021/10/02 07:08:19;;;;;;;8.50;4.20;;;;;;;;;;7395810;19;20022;-40
2021/10/02 07:10:47;;;;;;;7.15;4.25;;;;;;;;;;7395276;19;20017;-41
2021/10/02 07:13:14;;;;;;;5.47;3.90;;;;;;;;;;7396441;19;20011;-43
2021/10/02 07:15:42;;;;;;;13.48;4.93;;;;;;;;;;7392732;19;20014;-38
2021/10/02 07:18:13;;;;;;;12.82;7.65;;;;;;;;;;7395275;19;20022;-46
2021/10/02 07:20:40;;;;;;;12.82;6.28;;;;;;;;;;7395077;19;20027;-41
2021/10/02 07:23:08;;;;;;;10.05;5.28;;;;;;;;;;7399043;19;20021;-41
2021/10/02 07:25:35;;;;;;;8.25;4.35;;;;;;;;;;7396094;19;20018;-41
2021/10/02 07:28:03;;;;;;;6.00;3.58;;;;;;;;;;7394174;19;20014;-45
2021/10/02 07:30:32;;;;;;;7.07;3.97;;;;;;;;;;7394984;19;20014;-42
2021/10/02 07:33:00;;;;;;;7.60;3.47;;;;;;;;;;7394247;19;20021;-41
2021/10/02 07:35:27;;;;;;;8.10;4.63;;;;;;;;;;7392618;19;20014;-41
2021/10/02 07:37:55;;;;;;;5.50;3.83;;;;;;;;;;7393212;19;20038;-41
2021/10/02 07:40:23;;;;;;;5.28;3.08;;;;;;;;;;7392122;19;20023;-43
2021/10/02 07:42:55;;;;;;;10.38;4.40;;;;;;;;;;7393663;19;20042;-43
2021/10/02 07:45:26;;;;;;;8.32;3.90;;;;;;;;;;7395084;19;20023;-44
2021/10/02 07:47:55;;;;;;;6.25;3.47;;;;;;;;;;7394144;19;20101;-41
2021/10/02 07:50:25;;;;;;;5.28;3.15;;;;;;;;;;7393181;19;20019;-40
2021/10/02 07:52:56;;;;;;;8.60;4.25;;;;;;;;;;7393089;19;20025;-41
2021/10/02 07:55:26;;;;;;;6.10;3.75;;;;;;;;;;7392118;19;20022;-41
2021/10/02 07:57:53;;;;;;;5.95;3.65;;;;;;;;;;7393111;19;20011;-40
2021/10/02 08:00:21;;;;;;;8.00;3.88;;;;;;;;;;7393264;19;20006;-41
2021/10/02 08:02:55;;;;;;;7.07;4.45;;;;;;;;;;7393264;19;20015;-47
2021/10/02 08:05:24;;;;;;;134.30;59.97;;;;;;;;;;7393397;19;20014;-41
2021/10/02 08:07:52;;;;;;;25.10;11.85;;;;;;;;;;7393255;19;20126;-41
2021/10/02 08:10:25;;;;;;;8.45;4.30;;;;;;;;;;7392933;19;20011;-42
2021/10/02 08:12:53;;;;;;;9.65;4.63;;;;;;;;;;7394170;19;20010;-41
2021/10/02 08:15:21;;;;;;;7.45;3.88;;;;;;;;;;7391009;19;20049;-43
2021/10/02 08:17:53;;;;;;;7.28;4.32;;;;;;;;;;7392937;19;20011;-43
2021/10/02 08:20:21;;;;;;;7.13;4.38;;;;;;;;;;7393216;19;20018;-42
2021/10/02 08:22:51;;;;;;;15.45;5.80;;;;;;;;;;7393562;19;20454;-42
2021/10/02 08:25:19;;;;;;;6.97;4.60;;;;;;;;;;7392899;19;20027;-41
2021/10/02 08:27:52;;;;;;;9.35;5.30;;;;;;;;;;7397017;19;20006;-44
2021/10/02 08:30:19;;;;;;;9.48;5.38;;;;;;;;;;7392754;19;20011;-41
2021/10/02 08:32:47;;;;;;;9.65;5.63;;;;;;;;;;7392422;19;20010;-42
2021/10/02 08:35:16;;;;;;;7.32;4.75;;;;;;;;;;7389005;19;20559;-41
2021/10/02 08:37:45;;;;;;;67.50;34.40;;;;;;;;;;7391897;19;20055;-45
2021/10/02 08:40:15;;;;;;;53.08;23.75;;;;;;;;;;7389796;19;20466;-57
2021/10/02 08:42:45;;;;;;;15.93;7.53;;;;;;;;;;7391925;19;20002;-46
2021/10/02 08:45:14;;;;;;;9.07;5.82;;;;;;;;;;7392302;19;20351;-38
2021/10/02 08:47:45;;;;;;;10.35;5.50;;;;;;;;;;7392440;19;20014;-51
2021/10/02 08:50:17;;;;;;;11.07;5.65;;;;;;;;;;7392379;19;20007;-39
2021/10/02 08:52:47;;;;;;;11.85;6.07;;;;;;;;;;7395706;19;20006;-54
2021/10/02 08:55:15;;;;;;;10.30;5.82;;;;;;;;;;7390979;19;20006;-39
2021/10/02 08:57:46;;;;;;;11.45;7.32;;;;;;;;;;7391454;19;20089;-48
2021/10/02 09:00:16;;;;;;;8.93;6.43;;;;;;;;;;7391510;19;20007;-54
2021/10/02 09:02:45;;;;;;;9.70;6.22;;;;;;;;;;7391598;19;20034;-40
2021/10/02 09:05:15;;;;;;;9.80;6.15;;;;;;;;;;7391882;19;20014;-47
2021/10/02 09:07:44;;;;;;;10.88;5.97;;;;;;;;;;7391940;19;20010;-55
2021/10/02 09:10:13;;;;;;;11.10;6.25;;;;;;;;;;7391575;19;20021;-44
2021/10/02 09:12:45;;;;;;;192.35;78.00;;;;;;;;;;7391548;19;20018;-43
2021/10/02 09:15:16;;;;;;;121.68;52.03;;;;;;;;;;7390066;19;20471;-39
2021/10/02 09:17:45;;;;;;;19.52;10.98;;;;;;;;;;7391064;19;20337;-44
2021/10/02 09:20:14;;;;;;;17.17;8.18;;;;;;;;;;7390897;19;20033;-56
2021/10/02 09:22:59;;;;;;;13.80;8.10;;;;;;;;;;7390618;19;20086;-43
2021/10/02 09:25:29;;;;;;;12.18;7.25;;;;;;;;;;7391591;19;20030;-43
2021/10/02 09:28:04;;;;;;;13.18;6.95;;;;;;;;;;7391312;19;20007;-50
2021/10/02 09:30:31;;;;;;;12.35;6.50;;;;;;;;;;7390840;19;20715;-49
2021/10/02 09:33:10;;;;;;;11.95;7.05;;;;;;;;;;7390730;19;20034;-52
2021/10/02 09:35:40;;;;;;;10.77;6.60;;;;;;;;;;7389450;19;20052;-47
2021/10/02 09:38:12;;;;;;;7.50;4.60;;;;;;;;;;7390330;19;20074;-46
2021/10/02 09:40:45;;;;;;;9.70;4.78;;;;;;;;;;7388698;19;20018;-39
2021/10/02 09:43:12;;;;;;;7.53;4.35;;;;;;;;;;7390013;19;20019;-45
2021/10/02 09:45:40;;;;;;;7.13;4.47;;;;;;;;;;7390652;19;20014;-49
2021/10/02 09:48:10;;;;;;;7.95;4.68;;;;;;;;;;7390863;19;20030;-45
2021/10/02 09:50:40;;;;;;;8.13;4.78;;;;;;;;;;7393653;19;20018;-46
2021/10/02 09:53:10;;;;;;;8.45;4.30;;;;;;;;;;7402014;19;20074;-45
2021/10/02 09:55:44;;;;;;;7.40;4.13;;;;;;;;;;7396542;19;20011;-45
2021/10/02 09:58:27;;;;;;;8.18;4.65;;;;;;;;;;7396592;19;20034;-38
2021/10/02 10:00:56;;;;;;;6.22;4.25;;;;;;;;;;7397808;19;20041;-40
2021/10/02 10:03:24;;;;;;;220.43;107.97;;;;;;;;;;7397350;19;20018;-39
2021/10/02 10:05:53;;;;;;;22.75;12.75;;;;;;;;;;7397567;19;20486;-41
2021/10/02 10:08:26;;;;;;;12.40;7.30;;;;;;;;;;7397505;19;20007;-41
2021/10/02 10:11:09;;;;;;;13.23;7.40;;;;;;;;;;7397708;19;20033;-41
2021/10/02 10:13:37;;;;;;;14.00;7.50;;;;;;;;;;7399963;19;20006;-41
2021/10/02 10:16:10;;;;;;;12.73;6.93;;;;;;;;;;7395670;19;20007;-41
2021/10/02 10:18:38;;;;;;;13.27;6.95;;;;;;;;;;7395607;19;20010;-44
2021/10/02 10:21:11;;;;;;;10.65;6.72;;;;;;;;;;7396247;19;20006;-41
2021/10/02 10:23:41;;;;;;;8.48;5.30;;;;;;;;;;7396468;19;20010;-44
2021/10/02 10:26:12;;;;;;;63.33;26.63;;;;;;;;;;7396657;19;20014;-52
2021/10/02 10:28:41;;;;;;;46.70;22.90;;;;;;;;;;7395509;19;20010;-45
2021/10/02 10:31:27;;;;;;;11.20;7.13;;;;;;;;;;7397137;19;20495;-43
2021/10/02 10:33:57;;;;;;;10.73;6.40;;;;;;;;;;7396823;19;20011;-41
2021/10/02 10:36:27;;;;;;;7.95;5.65;;;;;;;;;;7393689;19;20035;-43
2021/10/02 10:38:55;;;;;;;13.38;6.68;;;;;;;;;;7396404;19;20013;-43
2021/10/02 10:41:28;;;;;;;11.20;6.32;;;;;;;;;;7396415;19;20050;-47
2021/10/02 10:43:57;;;;;;;10.88;7.53;;;;;;;;;;7395722;19;20042;-43
2021/10/02 10:46:25;;;;;;;15.00;8.75;;;;;;;;;;7396205;19;20504;-50
2021/10/02 10:48:53;;;;;;;19.25;11.10;;;;;;;;;;7396227;19;20030;-43
2021/10/02 10:51:21;;;;;;;12.48;8.13;;;;;;;;;;7396241;19;20017;-48
2021/10/02 10:53:50;;;;;;;12.18;7.90;;;;;;;;;;7395843;19;20018;-45
2021/10/02 10:56:38;;;;;;;12.27;6.70;;;;;;;;;;7394050;19;20031;-49
2021/10/02 10:59:06;;;;;;;9.13;5.68;;;;;;;;;;7394715;19;20026;-47
2021/10/02 11:01:39;;;;;;;6.40;4.68;;;;;;;;;;7395116;19;20023;-44
2021/10/02 11:04:34;;;;;;;8.38;5.60;;;;;;;;;;7396058;19;20014;-46
2021/10/02 11:07:02;;;;;;;10.50;5.10;;;;;;;;;;7395834;19;20010;-46
2021/10/02 11:09:37;;;;;;;8.40;5.55;;;;;;;;;;7395153;19;20360;-47
2021/10/02 11:12:08;;;;;;;9.27;5.50;;;;;;;;;;7394486;19;20013;-50
2021/10/02 11:14:47;;;;;;;8.35;4.88;;;;;;;;;;7400037;19;20003;-48
2021/10/02 11:17:42;;;;;;;6.40;4.60;;;;;;;;;;7394949;19;20038;-50
2021/10/02 11:20:16;;;;;;;7.97;4.45;;;;;;;;;;7394932;19;20094;-47
2021/10/02 11:23:29;;;;;;;8.07;4.75;;;;;;;;;;7397868;19;20035;-50
2021/10/02 11:26:10;;;;;;;7.28;4.38;;;;;;;;;;7394567;19;20503;-50
2021/10/02 11:28:39;;;;;;;8.00;5.03;;;;;;;;;;7395331;19;20028;-49
2021/10/02 11:31:19;;;;;;;11.35;5.45;;;;;;;;;;7394858;19;20039;-52
2021/10/02 11:33:52;;;;;;;153.43;69.50;;;;;;;;;;7394300;19;20018;-46
2021/10/02 11:36:29;;;;;;;171.45;69.75;;;;;;;;;;7392154;19;20015;-46
2021/10/02 11:39:09;;;;;;;22.63;12.18;;;;;;;;;;7391663;19;20018;-46
2021/10/02 11:41:40;;;;;;;9.95;6.32;;;;;;;;;;7395224;19;20018;-49
2021/10/02 11:44:08;;;;;;;8.38;5.57;;;;;;;;;;7394419;19;20018;-45
2021/10/02 11:46:36;;;;;;;6.80;5.32;;;;;;;;;;7395192;19;20022;-49
2021/10/02 11:49:18;;;;;;;7.03;4.68;;;;;;;;;;7391469;19;20010;-43
2021/10/02 11:52:17;;;;;;;6.85;4.85;;;;;;;;;;7394425;19;20010;-44
2021/10/02 11:54:45;;;;;;;9.85;5.00;;;;;;;;;;7391733;19;20446;-39
2021/10/02 11:57:14;;;;;;;7.63;5.15;;;;;;;;;;7389490;19;20011;-45
2021/10/02 11:59:46;;;;;;;8.63;5.47;;;;;;;;;;7392903;19;20015;-51
2021/10/02 12:02:15;;;;;;;9.68;5.38;;;;;;;;;;7394115;19;20026;-48
2021/10/02 12:04:50;;;;;;;7.28;5.03;;;;;;;;;;7393483;19;20011;-43
2021/10/02 12:07:17;;;;;;;10.40;5.43;;;;;;;;;;7393737;19;20017;-45
2021/10/02 12:09:56;;;;;;;10.52;5.65;;;;;;;;;;7393883;19;20007;-43
2021/10/02 12:12:24;;;;;;;8.43;5.32;;;;;;;;;;7394053;19;20130;-54
2021/10/02 12:14:57;;;;;;;7.90;4.78;;;;;;;;;;7396294;19;20226;-44
2021/10/02 12:17:24;;;;;;;8.45;5.30;;;;;;;;;;7390155;19;20011;-45
2021/10/02 12:19:52;;;;;;;8.15;4.90;;;;;;;;;;7392910;19;20010;-41
2021/10/02 12:22:20;;;;;;;7.15;4.88;;;;;;;;;;7393548;19;20502;-50
2021/10/02 12:24:48;;;;;;;7.43;4.72;;;;;;;;;;7392640;19;20007;-51
2021/10/02 12:27:16;;;;;;;199.70;90.90;;;;;;;;;;7390522;19;20363;-41
2021/10/02 12:29:49;;;;;;;31.25;18.40;;;;;;;;;;7393382;19;20046;-40
2021/10/02 12:32:22;;;;;;;10.88;6.93;;;;;;;;;;7392568;19;20046;-40
2021/10/02 12:35:08;;;;;;;10.32;5.93;;;;;;;;;;7392895;19;20086;-43
2021/10/02 12:37:36;;;;;;;11.25;6.53;;;;;;;;;;7391799;19;20022;-42
2021/10/02 12:40:12;;;;;;;10.27;5.30;;;;;;;;;;7391897;19;20021;-44
2021/10/02 12:42:47;;;;;;;8.15;5.72;;;;;;;;;;7391875;19;20039;-50
2021/10/02 12:45:31;;;;;;;11.80;6.50;;;;;;;;;;7391554;19;20011;-47
2021/10/02 12:48:04;;;;;;;8.48;5.65;;;;;;;;;;7392463;19;20022;-43
2021/10/02 12:50:37;;;;;;;8.95;5.43;;;;;;;;;;7391680;19;20034;-46
2021/10/02 12:53:06;;;;;;;7.85;5.57;;;;;;;;;;7392276;19;20011;-53
2021/10/02 12:55:33;;;;;;;9.60;5.80;;;;;;;;;;7390900;19;20007;-49
2021/10/02 12:58:01;;;;;;;8.90;5.68;;;;;;;;;;7391634;19;20018;-51
2021/10/02 13:00:31;;;;;;;8.65;6.03;;;;;;;;;;7391994;19;20018;-43
2021/10/02 13:03:01;;;;;;;220.65;111.07;;;;;;;;;;7391506;19;20406;-50
2021/10/02 13:05:33;;;;;;;24.35;12.93;;;;;;;;;;7391187;19;20435;-56
2021/10/02 13:08:04;;;;;;;9.55;6.65;;;;;;;;;;7392050;19;20014;-43
2021/10/02 13:10:33;;;;;;;7.97;5.82;;;;;;;;;;7391859;19;20133;-50
2021/10/02 13:13:11;;;;;;;9.48;6.28;;;;;;;;;;7392861;19;20021;-49
2021/10/02 13:15:40;;;;;;;8.70;6.22;;;;;;;;;;7391329;19;20479;-54
2021/10/02 13:18:14;;;;;;;8.82;5.30;;;;;;;;;;7390831;19;20021;-51
2021/10/02 13:20:41;;;;;;;10.05;6.47;;;;;;;;;;7389436;19;20011;-42
2021/10/02 13:23:11;;;;;;;9.40;6.18;;;;;;;;;;7391066;19;20026;-44
2021/10/02 13:26:00;;;;;;;7.57;6.10;;;;;;;;;;7390779;19;20081;-47
2021/10/02 13:28:34;;;;;;;8.48;5.95;;;;;;;;;;7391356;19;20015;-56
2021/10/02 13:31:08;;;;;;;9.25;6.78;;;;;;;;;;7389740;19;20006;-54
2021/10/02 13:33:39;;;;;;;10.02;6.28;;;;;;;;;;7390997;19;20499;-43
2021/10/02 13:36:19;;;;;;;10.82;7.20;;;;;;;;;;7390672;19;20077;-52
2021/10/02 13:38:47;;;;;;;12.55;7.53;;;;;;;;;;7390439;19;20101;-52
2021/10/02 13:41:19;;;;;;;69.55;36.28;;;;;;;;;;7390705;19;20018;-45
2021/10/02 13:43:54;;;;;;;22.77;12.65;;;;;;;;;;7390514;19;20012;-57
2021/10/02 13:46:26;;;;;;;12.10;8.05;;;;;;;;;;7389997;19;20035;-55
2021/10/02 13:48:54;;;;;;;8.80;6.15;;;;;;;;;;7390286;19;20037;-49
2021/10/02 13:51:22;;;;;;;8.40;6.10;;;;;;;;;;7390178;19;20498;-52
2021/10/02 13:53:49;;;;;;;9.75;6.55;;;;;;;;;;7388676;19;20470;-44
2021/10/02 13:56:16;;;;;;;9.65;7.07;;;;;;;;;;7389186;19;20585;-44
2021/10/02 13:58:45;;;;;;;13.77;7.57;;;;;;;;;;7390832;19;20011;-44
2021/10/02 14:01:13;;;;;;;8.02;6.10;;;;;;;;;;7388188;19;20013;-50
2021/10/02 14:03:40;;;;;;;10.10;5.90;;;;;;;;;;7389824;19;20018;-43
2021/10/02 14:06:08;;;;;;;11.82;7.47;;;;;;;;;;7390051;19;20041;-45
2021/10/02 14:08:35;;;;;;;10.30;6.75;;;;;;;;;;7390035;19;20014;-45
2021/10/02 14:11:03;;;;;;;11.02;6.57;;;;;;;;;;7389807;19;20106;-42
2021/10/02 14:13:31;;;;;;;9.23;7.32;;;;;;;;;;7375116;19;20015;-43
2021/10/02 14:15:58;;;;;;;9.60;6.50;;;;;;;;;;7389037;19;20007;-53
2021/10/02 14:18:26;;;;;;;12.80;8.57;;;;;;;;;;7389364;19;20092;-52
2021/10/02 14:20:53;;;;;;;10.73;7.30;;;;;;;;;;7387530;19;20375;-46
2021/10/02 14:23:20;;;;;;;10.82;6.88;;;;;;;;;;7389028;19;20490;-49
2021/10/02 14:25:47;;;;;;;11.30;7.28;;;;;;;;;;7388641;19;20479;-54
2021/10/02 14:28:15;;;;;;;11.88;7.95;;;;;;;;;;7389653;19;20482;-46
2021/10/02 14:30:43;;;;;;;24.33;15.32;;;;;;;;;;7389055;19;20006;-52
2021/10/02 14:33:10;;;;;;;15.98;9.48;;;;;;;;;;7389013;19;20498;-43
2021/10/02 14:35:38;;;;;;;12.57;8.52;;;;;;;;;;7389005;19;20019;-47
2021/10/02 14:38:06;;;;;;;15.15;8.52;;;;;;;;;;7393144;19;20321;-48
2021/10/02 14:40:36;;;;;;;15.27;9.70;;;;;;;;;;7386925;19;20470;-45
2021/10/02 14:43:04;;;;;;;15.23;9.13;;;;;;;;;;7394087;19;20010;-53
2021/10/02 14:45:32;;;;;;;15.23;9.68;;;;;;;;;;7390857;19;20021;-51
2021/10/02 14:47:59;;;;;;;17.90;10.27;;;;;;;;;;7391074;19;20046;-50
2021/10/02 14:50:27;;;;;;;18.95;12.07;;;;;;;;;;7390111;19;20018;-49
2021/10/02 14:52:55;;;;;;;21.35;13.35;;;;;;;;;;7391950;19;20022;-51
2021/10/02 14:55:23;;;;;;;18.48;12.93;;;;;;;;;;7392971;19;20092;-52
2021/10/02 14:57:51;;;;;;;16.42;11.75;;;;;;;;;;7389984;19;20025;-47
2021/10/02 15:00:18;;;;;;;15.65;10.63;;;;;;;;;;7391428;19;20018;-44
2021/10/02 15:02:45;;;;;;;13.20;10.32;;;;;;;;;;7392139;19;20014;-54
2021/10/02 15:05:13;;;;;;;15.07;10.38;;;;;;;;;;7392858;19;20361;-43
2021/10/02 15:07:41;;;;;;;33.45;20.20;;;;;;;;;;7392070;19;20010;-43
2021/10/02 15:10:11;;;;;;;15.30;10.68;;;;;;;;;;7392373;19;20007;-45
2021/10/02 15:12:40;;;;;;;15.75;9.40;;;;;;;;;;7393450;19;20010;-48
2021/10/02 15:15:10;;;;;;;13.23;10.05;;;;;;;;;;7392662;19;20025;-54
2021/10/02 15:17:37;;;;;;;15.05;10.10;;;;;;;;;;7391035;19;20018;-55
2021/10/02 15:20:07;;;;;;;18.40;9.63;;;;;;;;;;7392393;19;20014;-44
2021/10/02 15:22:38;;;;;;;16.00;10.18;;;;;;;;;;7394431;19;20007;-54
2021/10/02 15:25:10;;;;;;;14.50;9.23;;;;;;;;;;7393644;19;20018;-48
2021/10/02 15:28:00;;;;;;;13.25;9.50;;;;;;;;;;7391643;19;20014;-57
2021/10/02 15:30:27;;;;;;;17.02;9.48;;;;;;;;;;7392017;19;20014;-45
2021/10/02 15:32:57;;;;;;;14.40;11.02;;;;;;;;;;7392100;19;20014;-52
2021/10/02 15:35:29;;;;;;;19.35;11.45;;;;;;;;;;7392022;19;20078;-51
2021/10/02 15:37:59;;;;;;;14.25;10.20;;;;;;;;;;7389503;19;20483;-53
2021/10/02 15:40:28;;;;;;;14.63;11.23;;;;;;;;;;7391305;19;20025;-47
2021/10/02 15:42:58;;;;;;;16.48;11.05;;;;;;;;;;7391139;19;20353;-45
2021/10/02 15:45:26;;;;;;;15.40;10.70;;;;;;;;;;7391151;19;20006;-51